Time;durP1;ratioP1;P1;durP2;ratioP2;P2;SDS_P1;SDS_P2;PMS_P1;PMS_P2;Temp;Humidity;BMP_temperature;BMP_pressure;BME280_temperature;BME280_humidity;BME280_pressure;Samples;Min_cycle;Max_cycle;Signal;HPM_P1;HPM_P2
2023/05/17 00:01:13;;;;;;;11.30;4.45;;;;;;;;;;5111025;27;20136;-75
2023/05/17 00:03:38;;;;;;;15.80;4.40;;;;;;;;;;5105239;28;20047;-75
2023/05/17 00:06:04;;;;;;;11.85;4.03;;;;;;;;;;5119048;27;20032;-75
2023/05/17 00:08:30;;;;;;;14.50;5.45;;;;;;;;;;5113916;27;20050;-75
2023/05/17 00:10:56;;;;;;;14.95;4.45;;;;;;;;;;5106514;27;20476;-75
2023/05/17 00:13:21;;;;;;;15.07;5.00;;;;;;;;;;5106340;27;20111;-75
2023/05/17 00:15:46;;;;;;;12.70;5.00;;;;;;;;;;5109561;28;20023;-75
2023/05/17 00:18:12;;;;;;;11.85;4.50;;;;;;;;;;5108455;27;20587;-75
2023/05/17 00:20:37;;;;;;;10.90;4.05;;;;;;;;;;5108579;27;20035;-75
2023/05/17 00:23:03;;;;;;;13.85;3.72;;;;;;;;;;5105272;27;20031;-75
2023/05/17 00:25:28;;;;;;;10.70;3.90;;;;;;;;;;5095460;27;20039;-75
2023/05/17 00:27:54;;;;;;;14.43;4.18;;;;;;;;;;5100992;27;20042;-75
2023/05/17 00:30:19;;;;;;;14.45;4.35;;;;;;;;;;5102896;28;20024;-75
2023/05/17 00:32:45;;;;;;;13.27;4.18;;;;;;;;;;5113144;27;20458;-75
2023/05/17 00:35:11;;;;;;;11.50;4.22;;;;;;;;;;5105606;27;20135;-75
2023/05/17 00:37:37;;;;;;;11.27;4.43;;;;;;;;;;5093889;28;20044;-75
2023/05/17 00:40:06;;;;;;;9.55;3.92;;;;;;;;;;5091846;27;20028;-75
2023/05/17 00:42:31;;;;;;;7.57;3.95;;;;;;;;;;5102053;28;20108;-75
2023/05/17 00:44:57;;;;;;;13.30;4.55;;;;;;;;;;5103999;27;20116;-75
2023/05/17 00:47:22;;;;;;;10.38;3.97;;;;;;;;;;5099098;28;20028;-75
2023/05/17 00:49:48;;;;;;;10.57;4.10;;;;;;;;;;5107620;27;20032;-75
2023/05/17 00:52:13;;;;;;;6.88;3.80;;;;;;;;;;5101366;28;20059;-75
2023/05/17 00:54:39;;;;;;;8.57;3.83;;;;;;;;;;5092373;27;20031;-75
2023/05/17 00:57:05;;;;;;;8.25;4.55;;;;;;;;;;5100735;27;20042;-75
2023/05/17 00:59:31;;;;;;;12.25;4.25;;;;;;;;;;5106432;27;20559;-75
2023/05/17 01:01:57;;;;;;;11.50;4.03;;;;;;;;;;5104850;27;20044;-75
2023/05/17 01:04:23;;;;;;;8.75;4.13;;;;;;;;;;5099976;27;20047;-75
2023/05/17 01:06:49;;;;;;;10.15;3.53;;;;;;;;;;5105467;28;20019;-74
2023/05/17 01:09:16;;;;;;;12.02;3.95;;;;;;;;;;5107598;27;20610;-75
2023/05/17 01:12:16;;;;;;;12.98;4.15;;;;;;;;;;5104206;27;20525;-75
2023/05/17 01:14:44;;;;;;;7.88;4.05;;;;;;;;;;5068878;28;20035;-75
2023/05/17 01:17:24;;;;;;;12.90;4.43;;;;;;;;;;5105827;28;20040;-75
2023/05/17 01:20:05;;;;;;;13.18;4.35;;;;;;;;;;5105845;28;20030;-75
2023/05/17 01:23:08;;;;;;;20.35;5.10;;;;;;;;;;5105869;28;20054;-74
2023/05/17 01:25:51;;;;;;;15.20;5.20;;;;;;;;;;5110037;28;20031;-74
2023/05/17 01:28:17;;;;;;;;;;;;;;;;;;5106446;27;20138;-75
2023/05/17 01:30:46;;;;;;;10.25;4.20;;;;;;;;;;5107430;28;20020;-75
2023/05/17 01:33:11;;;;;;;11.23;4.38;;;;;;;;;;5105230;28;20599;-75
2023/05/17 01:35:37;;;;;;;18.33;5.18;;;;;;;;;;5106516;27;20044;-75
2023/05/17 01:38:02;;;;;;;14.40;5.13;;;;;;;;;;5110848;27;20039;-75
2023/05/17 01:40:30;;;;;;;13.50;4.47;;;;;;;;;;5093373;27;20060;-75
2023/05/17 01:43:06;;;;;;;11.45;4.45;;;;;;;;;;5102913;27;20120;-75
2023/05/17 01:45:43;;;;;;;11.63;4.93;;;;;;;;;;5105355;27;20035;-75
2023/05/17 01:48:11;;;;;;;7.63;3.75;;;;;;;;;;5101902;28;20032;-74
2023/05/17 01:50:38;;;;;;;11.20;4.07;;;;;;;;;;5105821;27;20585;-75
2023/05/17 01:53:09;;;;;;;11.23;4.30;;;;;;;;;;5106410;27;20149;-75
2023/05/17 01:55:47;;;;;;;14.25;4.55;;;;;;;;;;5105252;28;20591;-75
2023/05/17 01:58:13;;;;;;;10.55;4.07;;;;;;;;;;5093590;27;21093;-75
2023/05/17 02:00:41;;;;;;;16.63;4.53;;;;;;;;;;5102071;28;20056;-75
2023/05/17 02:03:11;;;;;;;11.07;4.28;;;;;;;;;;5087194;28;20055;-75
2023/05/17 02:05:37;;;;;;;9.45;3.78;;;;;;;;;;5106605;27;20035;-75
2023/05/17 02:08:02;;;;;;;9.80;4.22;;;;;;;;;;5096180;28;20566;-75
2023/05/17 02:10:28;;;;;;;11.65;4.38;;;;;;;;;;5104271;27;20544;-75
2023/05/17 02:12:53;;;;;;;11.82;4.50;;;;;;;;;;5106255;27;20023;-75
2023/05/17 02:15:18;;;;;;;13.90;5.13;;;;;;;;;;5107390;27;20019;-75
2023/05/17 02:17:44;;;;;;;8.95;4.50;;;;;;;;;;5094955;27;20032;-75
2023/05/17 02:20:10;;;;;;;13.30;4.53;;;;;;;;;;5089447;28;20036;-75
2023/05/17 02:22:36;;;;;;;7.47;3.75;;;;;;;;;;5102076;27;20028;-75
2023/05/17 02:25:01;;;;;;;8.45;3.72;;;;;;;;;;5105984;27;20051;-75
2023/05/17 02:27:27;;;;;;;8.52;4.00;;;;;;;;;;5106852;28;20026;-74
2023/05/17 02:29:52;;;;;;;9.32;4.20;;;;;;;;;;5104958;27;20393;-75
2023/05/17 02:32:17;;;;;;;9.63;3.97;;;;;;;;;;5102482;27;20040;-75
2023/05/17 02:34:43;;;;;;;9.93;4.43;;;;;;;;;;5105112;28;20023;-74
2023/05/17 02:37:08;;;;;;;13.90;4.75;;;;;;;;;;5105934;28;20481;-75
2023/05/17 02:39:34;;;;;;;10.82;4.03;;;;;;;;;;5092392;28;20563;-75
2023/05/17 02:41:59;;;;;;;8.45;4.07;;;;;;;;;;5105994;27;20032;-74
2023/05/17 02:44:24;;;;;;;10.80;4.35;;;;;;;;;;5104061;28;20119;-75
2023/05/17 02:46:50;;;;;;;10.25;4.13;;;;;;;;;;5105707;28;20046;-75
2023/05/17 02:49:15;;;;;;;9.32;4.05;;;;;;;;;;5110707;28;20028;-75
2023/05/17 02:51:40;;;;;;;9.55;4.40;;;;;;;;;;5113303;28;20516;-75
2023/05/17 02:54:06;;;;;;;10.45;4.22;;;;;;;;;;5107433;27;20067;-75
2023/05/17 02:56:32;;;;;;;9.38;3.92;;;;;;;;;;5104639;28;20059;-75
2023/05/17 02:59:00;;;;;;;7.93;3.90;;;;;;;;;;5099874;28;20047;-75
2023/05/17 03:01:26;;;;;;;8.63;4.15;;;;;;;;;;5099176;27;20032;-75
2023/05/17 03:03:51;;;;;;;9.27;4.15;;;;;;;;;;5106677;28;20709;-75
2023/05/17 03:06:16;;;;;;;7.75;3.55;;;;;;;;;;5105512;28;20036;-75
2023/05/17 03:08:42;;;;;;;9.27;4.40;;;;;;;;;;5103461;28;20042;-75
2023/05/17 03:11:07;;;;;;;11.80;4.85;;;;;;;;;;5102790;27;20042;-75
2023/05/17 03:13:34;;;;;;;10.57;4.13;;;;;;;;;;5104571;28;20044;-75
2023/05/17 03:15:59;;;;;;;14.18;4.38;;;;;;;;;;5104798;27;20050;-75
2023/05/17 03:18:24;;;;;;;12.15;4.20;;;;;;;;;;5106316;28;20030;-75
2023/05/17 03:20:50;;;;;;;10.27;3.97;;;;;;;;;;5105447;27;20053;-75
2023/05/17 03:23:15;;;;;;;10.13;4.18;;;;;;;;;;5106211;27;20409;-75
2023/05/17 03:25:40;;;;;;;8.52;4.00;;;;;;;;;;5100888;28;20042;-75
2023/05/17 03:28:06;;;;;;;12.48;4.32;;;;;;;;;;5106974;27;20028;-75
2023/05/17 03:30:31;;;;;;;9.95;4.47;;;;;;;;;;5109088;28;20024;-75
2023/05/17 03:32:57;;;;;;;10.77;4.22;;;;;;;;;;5109080;27;20039;-75
2023/05/17 03:35:22;;;;;;;9.57;4.03;;;;;;;;;;5097770;27;20574;-75
2023/05/17 03:37:47;;;;;;;8.88;4.32;;;;;;;;;;5103479;27;20130;-75
2023/05/17 03:40:13;;;;;;;11.77;3.97;;;;;;;;;;5100301;27;20066;-74
2023/05/17 03:42:38;;;;;;;8.25;3.92;;;;;;;;;;5103697;28;20088;-75
2023/05/17 03:45:04;;;;;;;11.45;4.55;;;;;;;;;;5104771;27;20561;-75
2023/05/17 03:47:29;;;;;;;7.25;3.45;;;;;;;;;;5107644;28;20065;-75
2023/05/17 03:49:54;;;;;;;8.60;3.72;;;;;;;;;;5108323;27;20509;-75
2023/05/17 03:52:20;;;;;;;9.80;4.38;;;;;;;;;;5108223;27;20035;-75
2023/05/17 03:54:45;;;;;;;6.95;3.40;;;;;;;;;;5109161;28;20039;-75
2023/05/17 03:57:11;;;;;;;9.05;4.22;;;;;;;;;;5107197;28;20084;-75
2023/05/17 03:59:36;;;;;;;13.13;4.72;;;;;;;;;;5107243;28;20448;-75
2023/05/17 04:02:01;;;;;;;7.97;4.13;;;;;;;;;;5106559;28;20038;-74
2023/05/17 04:04:27;;;;;;;10.88;4.13;;;;;;;;;;5108472;27;20105;-75
2023/05/17 04:06:52;;;;;;;15.00;4.50;;;;;;;;;;5109735;28;20045;-75
2023/05/17 04:09:18;;;;;;;10.40;4.13;;;;;;;;;;5106055;28;20097;-74
2023/05/17 04:11:44;;;;;;;10.98;3.97;;;;;;;;;;5109484;27;20067;-75
2023/05/17 04:14:09;;;;;;;12.35;3.83;;;;;;;;;;5118884;27;20058;-75
2023/05/17 04:16:35;;;;;;;12.05;3.88;;;;;;;;;;5106993;28;20030;-75
2023/05/17 04:19:00;;;;;;;10.48;3.70;;;;;;;;;;5107644;27;20020;-74
2023/05/17 04:21:26;;;;;;;12.60;4.60;;;;;;;;;;5108859;28;20023;-75
2023/05/17 04:23:51;;;;;;;8.55;4.03;;;;;;;;;;5107374;27;20034;-75
2023/05/17 04:26:17;;;;;;;10.90;3.92;;;;;;;;;;5108629;27;20042;-75
2023/05/17 04:28:42;;;;;;;6.65;3.85;;;;;;;;;;5106098;28;20517;-74
2023/05/17 04:31:08;;;;;;;10.68;4.20;;;;;;;;;;5108118;27;20858;-75
2023/05/17 04:33:34;;;;;;;6.80;3.38;;;;;;;;;;5108209;28;20023;-75
2023/05/17 04:35:59;;;;;;;6.72;3.67;;;;;;;;;;5106729;28;20066;-74
2023/05/17 04:38:25;;;;;;;9.48;4.13;;;;;;;;;;5102097;27;20069;-75
2023/05/17 04:40:50;;;;;;;7.50;3.60;;;;;;;;;;5097379;28;20097;-74
2023/05/17 04:43:15;;;;;;;8.00;3.97;;;;;;;;;;5104294;27;20123;-75
2023/05/17 04:45:41;;;;;;;10.65;5.03;;;;;;;;;;5108769;28;20023;-75
2023/05/17 04:48:07;;;;;;;10.45;4.38;;;;;;;;;;5107631;27;20032;-75
2023/05/17 04:50:32;;;;;;;11.95;4.88;;;;;;;;;;5107709;28;20059;-75
2023/05/17 04:52:57;;;;;;;8.25;4.13;;;;;;;;;;5107792;27;20038;-74
2023/05/17 04:55:23;;;;;;;10.85;4.85;;;;;;;;;;5106058;28;20626;-74
2023/05/17 04:57:48;;;;;;;14.95;4.47;;;;;;;;;;5091819;27;20023;-74
2023/05/17 05:00:14;;;;;;;11.13;4.72;;;;;;;;;;5088911;27;20311;-74
2023/05/17 05:02:41;;;;;;;8.98;4.90;;;;;;;;;;5098631;27;20085;-74
2023/05/17 05:05:07;;;;;;;15.13;4.70;;;;;;;;;;5099107;27;20036;-74
2023/05/17 05:07:32;;;;;;;10.95;4.50;;;;;;;;;;5085643;27;20036;-74
2023/05/17 05:09:57;;;;;;;8.52;4.28;;;;;;;;;;5105669;27;20023;-74
2023/05/17 05:12:24;;;;;;;8.45;4.07;;;;;;;;;;5107985;28;20019;-75
2023/05/17 05:14:49;;;;;;;10.80;4.70;;;;;;;;;;5106904;27;20042;-74
2023/05/17 05:17:14;;;;;;;11.85;4.32;;;;;;;;;;5107009;27;20419;-75
2023/05/17 05:19:40;;;;;;;8.05;4.75;;;;;;;;;;5107515;27;20031;-75
2023/05/17 05:22:05;;;;;;;13.25;4.90;;;;;;;;;;5105891;28;20497;-75
2023/05/17 05:24:30;;;;;;;12.25;5.22;;;;;;;;;;5107277;28;20020;-74
2023/05/17 05:26:56;;;;;;;9.85;4.45;;;;;;;;;;5107252;27;20044;-74
2023/05/17 05:29:21;;;;;;;13.80;5.05;;;;;;;;;;5105695;28;20027;-74
2023/05/17 05:31:46;;;;;;;9.02;5.07;;;;;;;;;;5098302;28;20028;-74
2023/05/17 05:34:12;;;;;;;14.20;4.63;;;;;;;;;;5095256;27;21199;-74
2023/05/17 05:36:37;;;;;;;9.15;3.90;;;;;;;;;;5117624;28;20488;-74
2023/05/17 05:39:03;;;;;;;11.43;4.82;;;;;;;;;;5098898;28;20032;-74
2023/05/17 05:41:28;;;;;;;8.32;4.43;;;;;;;;;;5099722;27;20028;-74
2023/05/17 05:43:53;;;;;;;15.48;5.57;;;;;;;;;;5097755;27;20055;-74
2023/05/17 05:46:19;;;;;;;10.65;4.57;;;;;;;;;;5106783;27;20087;-75
2023/05/17 05:48:44;;;;;;;13.77;5.68;;;;;;;;;;5106990;28;20096;-74
2023/05/17 05:51:10;;;;;;;21.15;6.00;;;;;;;;;;5106435;28;20168;-75
2023/05/17 05:53:35;;;;;;;16.77;5.35;;;;;;;;;;5099871;28;20123;-74
2023/05/17 05:56:01;;;;;;;10.40;5.22;;;;;;;;;;5096971;27;20035;-74
2023/05/17 05:58:28;;;;;;;10.18;5.35;;;;;;;;;;5106539;27;20043;-74
2023/05/17 06:00:54;;;;;;;14.95;5.28;;;;;;;;;;5100142;27;21126;-75
2023/05/17 06:03:19;;;;;;;15.75;5.07;;;;;;;;;;5097485;28;20160;-74
2023/05/17 06:05:45;;;;;;;15.32;5.40;;;;;;;;;;5096518;27;20035;-75
2023/05/17 06:08:10;;;;;;;13.85;5.78;;;;;;;;;;5102428;27;20032;-75
2023/05/17 06:10:36;;;;;;;14.65;5.00;;;;;;;;;;5103811;27;20509;-75
2023/05/17 06:13:01;;;;;;;13.00;5.28;;;;;;;;;;5103975;27;20027;-77
2023/05/17 06:15:27;;;;;;;17.67;5.50;;;;;;;;;;5087566;28;20131;-74
2023/05/17 06:17:52;;;;;;;13.77;5.68;;;;;;;;;;5085281;28;20032;-75
2023/05/17 06:20:18;;;;;;;19.45;6.20;;;;;;;;;;5083056;28;20035;-74
2023/05/17 06:22:43;;;;;;;13.02;5.63;;;;;;;;;;5092260;28;20063;-76
2023/05/17 06:25:10;;;;;;;15.45;5.97;;;;;;;;;;5092589;27;20023;-74
2023/05/17 06:27:35;;;;;;;23.15;5.82;;;;;;;;;;5103424;28;20019;-75
2023/05/17 06:30:01;;;;;;;12.98;5.63;;;;;;;;;;5103211;27;20028;-74
2023/05/17 06:32:26;;;;;;;13.32;5.70;;;;;;;;;;5087220;28;20395;-74
2023/05/17 06:34:52;;;;;;;13.55;6.13;;;;;;;;;;5089614;27;20042;-75
2023/05/17 06:37:17;;;;;;;19.42;5.72;;;;;;;;;;5101662;28;20699;-75
2023/05/17 06:39:42;;;;;;;13.93;6.78;;;;;;;;;;5088340;28;21096;-74
2023/05/17 06:42:08;;;;;;;14.82;6.18;;;;;;;;;;5083674;27;20035;-75
2023/05/17 06:44:33;;;;;;;14.55;6.53;;;;;;;;;;5082133;28;20066;-75
2023/05/17 06:46:59;;;;;;;13.07;6.35;;;;;;;;;;5095755;28;20031;-76
2023/05/17 06:49:25;;;;;;;16.77;6.35;;;;;;;;;;5091614;28;20044;-75
2023/05/17 06:51:51;;;;;;;18.67;6.68;;;;;;;;;;5093210;28;20024;-76
2023/05/17 06:54:18;;;;;;;14.60;6.05;;;;;;;;;;5099594;28;20036;-74
2023/05/17 06:56:44;;;;;;;17.77;6.88;;;;;;;;;;5090394;28;20143;-76
2023/05/17 06:59:09;;;;;;;13.10;5.68;;;;;;;;;;5089800;28;20140;-76
2023/05/17 07:01:35;;;;;;;20.45;6.13;;;;;;;;;;5089633;27;20598;-75
2023/05/17 07:04:00;;;;;;;22.50;6.93;;;;;;;;;;5096977;28;20109;-75
2023/05/17 07:06:26;;;;;;;23.52;6.72;;;;;;;;;;5096031;27;20035;-76
2023/05/17 07:08:51;;;;;;;19.15;7.40;;;;;;;;;;5092884;27;20089;-76
2023/05/17 07:11:16;;;;;;;23.80;7.20;;;;;;;;;;5087439;28;20035;-76
2023/05/17 07:13:42;;;;;;;20.02;8.35;;;;;;;;;;5097839;27;20629;-76
2023/05/17 07:16:08;;;;;;;30.85;7.57;;;;;;;;;;5101669;27;20027;-76
2023/05/17 07:18:33;;;;;;;22.23;7.00;;;;;;;;;;5091877;28;20036;-76
2023/05/17 07:20:58;;;;;;;23.83;8.10;;;;;;;;;;5082387;27;20294;-76
2023/05/17 07:23:24;;;;;;;29.23;8.48;;;;;;;;;;5088719;27;20044;-76
2023/05/17 07:25:49;;;;;;;22.33;7.78;;;;;;;;;;5082912;27;20062;-76
2023/05/17 07:28:15;;;;;;;22.23;6.82;;;;;;;;;;5087470;28;20600;-76
2023/05/17 07:30:41;;;;;;;24.05;7.97;;;;;;;;;;5098390;27;20024;-76
2023/05/17 07:33:06;;;;;;;23.73;7.57;;;;;;;;;;5099063;27;20042;-76
2023/05/17 07:35:32;;;;;;;23.00;8.35;;;;;;;;;;5102053;27;20643;-76
2023/05/17 07:37:57;;;;;;;23.65;7.15;;;;;;;;;;5098944;27;20035;-76
2023/05/17 07:40:22;;;;;;;23.02;7.05;;;;;;;;;;5097892;27;20100;-75
2023/05/17 07:42:48;;;;;;;22.67;6.60;;;;;;;;;;5093384;27;20032;-75
2023/05/17 07:45:13;;;;;;;22.98;7.30;;;;;;;;;;5097176;28;20461;-74
2023/05/17 07:47:38;;;;;;;20.08;6.35;;;;;;;;;;5098577;28;20039;-75
2023/05/17 07:50:04;;;;;;;20.17;6.35;;;;;;;;;;5094359;27;20028;-76
2023/05/17 07:52:30;;;;;;;17.83;6.95;;;;;;;;;;5090315;27;20043;-76
2023/05/17 07:54:55;;;;;;;19.23;5.75;;;;;;;;;;5098299;27;20046;-76
2023/05/17 07:57:21;;;;;;;14.98;5.80;;;;;;;;;;5099281;28;20051;-75
2023/05/17 07:59:46;;;;;;;22.33;6.47;;;;;;;;;;5095055;27;20466;-75
2023/05/17 08:02:11;;;;;;;17.65;5.15;;;;;;;;;;5102594;27;20096;-76
2023/05/17 08:04:37;;;;;;;17.60;6.05;;;;;;;;;;5104826;27;20189;-76
2023/05/17 08:07:02;;;;;;;13.85;5.90;;;;;;;;;;5101634;27;20028;-75
2023/05/17 08:09:28;;;;;;;17.83;6.25;;;;;;;;;;5099149;27;20080;-76
2023/05/17 08:11:53;;;;;;;18.23;6.22;;;;;;;;;;5085455;27;20032;-75
2023/05/17 08:14:23;;;;;;;21.33;7.72;;;;;;;;;;5088077;27;20143;-75
2023/05/17 08:16:50;;;;;;;16.25;4.57;;;;;;;;;;5100141;27;20131;-72
2023/05/17 08:19:16;;;;;;;10.45;4.65;;;;;;;;;;5123991;27;20834;-75
2023/05/17 08:21:42;;;;;;;15.02;5.20;;;;;;;;;;5106794;27;20073;-74
2023/05/17 08:24:08;;;;;;;12.65;4.00;;;;;;;;;;5098722;27;20451;-75
2023/05/17 08:26:34;;;;;;;13.48;4.43;;;;;;;;;;5099658;27;20586;-74
2023/05/17 08:29:01;;;;;;;12.70;4.20;;;;;;;;;;5094075;27;20032;-74
2023/05/17 08:31:27;;;;;;;13.00;5.03;;;;;;;;;;5098203;27;20036;-74
2023/05/17 08:33:52;;;;;;;14.68;4.20;;;;;;;;;;5097160;27;20382;-75
2023/05/17 08:36:17;;;;;;;11.15;4.25;;;;;;;;;;5092932;27;20047;-74
2023/05/17 08:38:43;;;;;;;14.45;4.65;;;;;;;;;;5093178;27;20043;-75
2023/05/17 08:41:08;;;;;;;9.98;4.30;;;;;;;;;;5098532;27;20113;-75
2023/05/17 08:43:34;;;;;;;12.20;4.07;;;;;;;;;;5096177;27;20070;-75
2023/05/17 08:46:02;;;;;;;11.80;4.25;;;;;;;;;;5093958;27;20028;-74
2023/05/17 08:48:29;;;;;;;15.50;4.90;;;;;;;;;;5098815;27;20058;-75
2023/05/17 08:50:56;;;;;;;10.23;4.35;;;;;;;;;;5102946;27;20119;-75
2023/05/17 08:53:24;;;;;;;11.93;3.95;;;;;;;;;;5095106;27;20118;-76
2023/05/17 08:55:50;;;;;;;15.52;4.50;;;;;;;;;;5092196;27;20525;-75
2023/05/17 08:58:23;;;;;;;8.32;3.70;;;;;;;;;;5100379;27;20032;-75
2023/05/17 09:00:50;;;;;;;13.45;3.95;;;;;;;;;;5091594;27;20519;-74
2023/05/17 09:03:17;;;;;;;6.60;2.88;;;;;;;;;;5091667;27;20050;-75
2023/05/17 09:05:44;;;;;;;8.25;3.45;;;;;;;;;;5096851;27;20031;-74
2023/05/17 09:08:12;;;;;;;9.55;3.45;;;;;;;;;;5095996;28;20979;-76
2023/05/17 09:10:39;;;;;;;7.60;3.50;;;;;;;;;;5096366;27;20040;-75
2023/05/17 09:13:05;;;;;;;5.93;3.30;;;;;;;;;;5093583;28;20495;-75
2023/05/17 09:15:33;;;;;;;7.90;3.25;;;;;;;;;;5096377;27;20058;-75
2023/05/17 09:17:58;;;;;;;8.88;3.70;;;;;;;;;;5098789;27;20042;-75
2023/05/17 09:20:32;;;;;;;7.35;3.50;;;;;;;;;;5095802;27;20040;-75
2023/05/17 09:22:58;;;;;;;8.80;3.13;;;;;;;;;;5095490;27;20030;-76
2023/05/17 09:25:24;;;;;;;6.22;2.95;;;;;;;;;;5094341;27;20032;-75
2023/05/17 09:27:53;;;;;;;8.98;3.08;;;;;;;;;;5087942;27;20077;-75
2023/05/17 09:30:18;;;;;;;14.25;3.00;;;;;;;;;;5100034;27;20035;-75
2023/05/17 09:32:47;;;;;;;6.50;2.78;;;;;;;;;;5094066;27;20036;-75
2023/05/17 09:35:12;;;;;;;10.25;3.20;;;;;;;;;;5093224;27;20047;-74
2023/05/17 09:37:38;;;;;;;6.28;2.70;;;;;;;;;;5107711;28;20036;-74
2023/05/17 09:40:08;;;;;;;8.10;2.85;;;;;;;;;;5107078;28;20951;-75
2023/05/17 09:42:38;;;;;;;6.40;2.25;;;;;;;;;;5101716;27;20162;-71
2023/05/17 09:45:03;;;;;;;5.18;2.65;;;;;;;;;;5089634;27;20184;-73
2023/05/17 09:47:30;;;;;;;7.20;2.65;;;;;;;;;;5097222;27;20513;-73
2023/05/17 09:49:59;;;;;;;5.53;2.20;;;;;;;;;;5087422;27;20643;-73
2023/05/17 09:52:30;;;;;;;7.18;2.80;;;;;;;;;;5092986;27;20059;-73
2023/05/17 09:54:57;;;;;;;8.07;2.83;;;;;;;;;;5095006;27;20038;-73
2023/05/17 09:57:24;;;;;;;9.15;3.00;;;;;;;;;;5098967;27;20104;-73
2023/05/17 09:59:53;;;;;;;11.73;3.60;;;;;;;;;;5096935;27;20085;-73
2023/05/17 10:02:26;;;;;;;8.23;2.97;;;;;;;;;;5091301;27;20166;-73
2023/05/17 10:04:54;;;;;;;;;;;;;;;;;;5088727;27;20040;-73
2023/05/17 10:07:20;;;;;;;5.55;2.60;;;;;;;;;;5109499;27;19935;-73
2023/05/17 10:09:49;;;;;;;8.95;3.70;;;;;;;;;;5095498;28;20055;-73
2023/05/17 10:12:21;;;;;;;8.27;3.10;;;;;;;;;;5088761;27;20532;-73
2023/05/17 10:14:47;;;;;;;9.18;2.65;;;;;;;;;;5091935;27;20114;-74
2023/05/17 10:17:13;;;;;;;6.80;2.33;;;;;;;;;;5087565;28;20544;-74
2023/05/17 10:19:40;;;;;;;5.80;2.05;;;;;;;;;;5095897;27;20155;-74
2023/05/17 10:22:06;;;;;;;7.82;2.60;;;;;;;;;;5098035;27;20695;-75
2023/05/17 10:24:34;;;;;;;7.55;2.20;;;;;;;;;;5095752;28;20026;-75
2023/05/17 10:26:59;;;;;;;6.85;2.00;;;;;;;;;;5105367;27;20112;-75
2023/05/17 10:29:25;;;;;;;6.38;2.22;;;;;;;;;;5103881;27;20055;-75
2023/05/17 10:31:50;;;;;;;7.53;2.13;;;;;;;;;;5094725;27;20043;-74
2023/05/17 10:34:18;;;;;;;6.03;2.30;;;;;;;;;;5090858;27;20067;-74
2023/05/17 10:36:45;;;;;;;5.90;1.98;;;;;;;;;;5087240;28;20157;-74
2023/05/17 10:39:10;;;;;;;5.85;2.15;;;;;;;;;;5094849;27;20843;-75
2023/05/17 10:41:39;;;;;;;6.47;2.45;;;;;;;;;;5089626;27;20035;-75
2023/05/17 10:44:07;;;;;;;6.05;2.20;;;;;;;;;;5085980;28;20036;-74
2023/05/17 10:46:33;;;;;;;6.25;2.53;;;;;;;;;;5090198;27;20036;-74
2023/05/17 10:48:59;;;;;;;4.63;1.85;;;;;;;;;;5089400;28;20031;-74
2023/05/17 10:51:30;;;;;;;4.90;1.63;;;;;;;;;;5093618;28;20485;-75
2023/05/17 10:54:01;;;;;;;5.57;2.28;;;;;;;;;;5086944;28;20065;-73
2023/05/17 10:56:30;;;;;;;10.65;2.65;;;;;;;;;;5087582;27;20415;-74
2023/05/17 10:59:20;;;;;;;9.07;2.83;;;;;;;;;;5096165;28;20147;-74
2023/05/17 11:02:08;;;;;;;4.32;2.13;;;;;;;;;;5103025;27;20036;-73
2023/05/17 11:04:41;;;;;;;6.18;2.47;;;;;;;;;;5103173;27;20185;-74
2023/05/17 11:07:16;;;;;;;8.07;2.35;;;;;;;;;;5090711;28;20048;-74
2023/05/17 11:09:42;;;;;;;5.72;2.25;;;;;;;;;;5093676;28;20027;-74
2023/05/17 11:12:09;;;;;;;4.95;1.73;;;;;;;;;;5086125;27;20035;-74
2023/05/17 11:14:44;;;;;;;6.90;2.88;;;;;;;;;;5093317;28;20032;-74
2023/05/17 11:17:41;;;;;;;5.32;1.70;;;;;;;;;;5095260;27;20119;-74
2023/05/17 11:20:27;;;;;;;4.55;1.80;;;;;;;;;;5081414;27;20054;-74
2023/05/17 11:23:06;;;;;;;6.57;2.80;;;;;;;;;;5090131;27;20135;-74
2023/05/17 11:25:34;;;;;;;2.05;1.50;;;;;;;;;;5086813;28;20036;-74
2023/05/17 11:28:18;;;;;;;5.47;1.65;;;;;;;;;;5097597;28;20030;-74
2023/05/17 11:30:49;;;;;;;6.45;1.65;;;;;;;;;;5087385;28;20024;-74
2023/05/17 11:33:15;;;;;;;7.60;1.90;;;;;;;;;;5097463;27;20031;-74
2023/05/17 11:35:41;;;;;;;7.28;2.10;;;;;;;;;;5091088;28;20043;-74
2023/05/17 11:38:20;;;;;;;6.85;1.88;;;;;;;;;;5089727;27;20061;-74
2023/05/17 11:40:48;;;;;;;5.00;1.90;;;;;;;;;;5096674;27;20116;-74
2023/05/17 11:43:22;;;;;;;5.28;1.73;;;;;;;;;;5083479;28;20040;-74
2023/05/17 11:45:56;;;;;;;5.00;1.73;;;;;;;;;;5089767;28;20031;-74
2023/05/17 11:48:22;;;;;;;6.03;1.60;;;;;;;;;;5097164;27;20052;-73
2023/05/17 11:50:50;;;;;;;6.70;1.60;;;;;;;;;;5095270;28;20036;-71
2023/05/17 11:53:15;;;;;;;8.57;1.70;;;;;;;;;;5093761;27;20126;-73
2023/05/17 11:55:49;;;;;;;7.13;1.90;;;;;;;;;;5092497;27;20131;-73
2023/05/17 11:58:22;;;;;;;6.75;1.83;;;;;;;;;;5092371;27;20535;-74
2023/05/17 12:00:55;;;;;;;4.85;1.90;;;;;;;;;;5088800;27;20048;-73
2023/05/17 12:03:23;;;;;;;10.13;1.63;;;;;;;;;;5091937;27;20086;-73
2023/05/17 12:05:50;;;;;;;6.00;1.90;;;;;;;;;;5094362;27;20040;-73
2023/05/17 12:08:20;;;;;;;4.70;1.65;;;;;;;;;;5096627;27;20065;-73
2023/05/17 12:10:50;;;;;;;4.97;1.40;;;;;;;;;;5100608;27;20043;-75
2023/05/17 12:13:17;;;;;;;5.78;2.10;;;;;;;;;;5095565;28;20040;-78
2023/05/17 12:16:04;;;;;;;6.57;1.67;;;;;;;;;;5093649;28;20032;-73
2023/05/17 12:18:37;;;;;;;7.18;1.85;;;;;;;;;;5105258;27;20055;-73
2023/05/17 12:21:04;;;;;;;7.25;1.52;;;;;;;;;;5095113;27;20138;-73
2023/05/17 12:23:32;;;;;;;5.78;1.33;;;;;;;;;;5102103;27;20090;-72
2023/05/17 12:26:01;;;;;;;3.63;1.25;;;;;;;;;;5105626;27;20599;-74
2023/05/17 12:28:26;;;;;;;6.57;1.80;;;;;;;;;;5096748;27;20520;-75
2023/05/17 12:30:56;;;;;;;4.32;1.42;;;;;;;;;;5086996;27;20043;-74
2023/05/17 12:33:22;;;;;;;6.07;1.35;;;;;;;;;;5094302;27;20047;-75
2023/05/17 12:35:48;;;;;;;9.18;1.92;;;;;;;;;;5102566;27;20039;-75
2023/05/17 12:38:13;;;;;;;3.85;1.42;;;;;;;;;;5099866;27;20036;-74
2023/05/17 12:40:39;;;;;;;4.80;1.23;;;;;;;;;;5093617;27;20043;-74
2023/05/17 12:43:04;;;;;;;4.65;1.50;;;;;;;;;;5083802;27;20032;-73
2023/05/17 12:45:30;;;;;;;4.38;1.60;;;;;;;;;;5103341;27;20561;-73
2023/05/17 12:47:58;;;;;;;3.83;1.30;;;;;;;;;;5088739;27;20047;-75
2023/05/17 12:50:30;;;;;;;2.80;1.27;;;;;;;;;;5103970;27;20027;-74
2023/05/17 12:52:56;;;;;;;4.72;1.17;;;;;;;;;;5102654;28;20040;-74
2023/05/17 12:55:22;;;;;;;3.08;1.30;;;;;;;;;;5100645;27;20080;-73
2023/05/17 12:57:51;;;;;;;4.65;1.58;;;;;;;;;;5105180;28;20091;-74
2023/05/17 13:00:17;;;;;;;4.70;1.20;;;;;;;;;;5103839;28;20050;-74
2023/05/17 13:02:43;;;;;;;3.83;1.45;;;;;;;;;;5097738;27;20076;-73
2023/05/17 13:05:20;;;;;;;2.88;1.20;;;;;;;;;;5099333;27;20127;-73
2023/05/17 13:07:45;;;;;;;5.43;1.77;;;;;;;;;;5102396;28;20058;-73
2023/05/17 13:10:25;;;;;;;3.00;1.30;;;;;;;;;;5090264;27;20028;-75
2023/05/17 13:12:55;;;;;;;4.50;1.48;;;;;;;;;;5093252;27;20570;-74
2023/05/17 13:15:26;;;;;;;2.55;1.20;;;;;;;;;;5101414;27;20040;-73
2023/05/17 13:17:51;;;;;;;6.82;1.70;;;;;;;;;;5102949;27;20040;-74
2023/05/17 13:20:17;;;;;;;5.85;1.60;;;;;;;;;;5094256;27;20543;-74
2023/05/17 13:22:45;;;;;;;8.93;1.83;;;;;;;;;;5095105;28;20099;-74
2023/05/17 13:25:11;;;;;;;5.05;1.45;;;;;;;;;;5098379;27;20020;-73
2023/05/17 13:27:36;;;;;;;3.38;1.40;;;;;;;;;;5108182;27;20039;-73
2023/05/17 13:30:02;;;;;;;3.65;1.20;;;;;;;;;;5103856;27;20412;-74
2023/05/17 13:32:28;;;;;;;7.78;1.40;;;;;;;;;;5101338;27;20031;-74
2023/05/17 13:34:54;;;;;;;5.13;1.70;;;;;;;;;;5098959;28;20032;-74
2023/05/17 13:37:20;;;;;;;5.35;1.60;;;;;;;;;;5100962;27;20102;-74
2023/05/17 13:39:45;;;;;;;2.42;1.08;;;;;;;;;;5096544;27;20519;-74
2023/05/17 13:42:12;;;;;;;2.00;0.90;;;;;;;;;;5102051;27;20031;-74
2023/05/17 13:44:37;;;;;;;5.10;1.38;;;;;;;;;;5097436;27;20040;-74
2023/05/17 13:47:03;;;;;;;3.60;1.45;;;;;;;;;;5117361;27;20122;-75
2023/05/17 13:49:28;;;;;;;2.70;1.27;;;;;;;;;;5107327;27;20028;-74
2023/05/17 13:51:54;;;;;;;3.75;1.20;;;;;;;;;;5104907;28;20092;-74
2023/05/17 13:54:20;;;;;;;4.10;1.40;;;;;;;;;;5104633;28;20607;-74
2023/05/17 13:56:45;;;;;;;3.88;1.20;;;;;;;;;;5101893;27;20035;-74
2023/05/17 13:59:11;;;;;;;2.65;1.20;;;;;;;;;;5101020;28;20119;-74
2023/05/17 14:01:36;;;;;;;4.38;1.25;;;;;;;;;;5102637;27;20088;-78
2023/05/17 14:04:02;;;;;;;3.17;1.17;;;;;;;;;;5102782;28;20479;-74
2023/05/17 14:06:27;;;;;;;2.45;1.15;;;;;;;;;;5104445;28;20050;-74
2023/05/17 14:08:54;;;;;;;4.82;1.58;;;;;;;;;;5103779;27;20035;-72
2023/05/17 14:11:20;;;;;;;2.72;1.33;;;;;;;;;;5098731;28;20028;-72
2023/05/17 14:13:45;;;;;;;3.50;1.23;;;;;;;;;;5099588;28;20032;-74
2023/05/17 14:16:11;;;;;;;3.78;1.20;;;;;;;;;;5103362;27;20030;-74
2023/05/17 14:18:36;;;;;;;3.67;1.10;;;;;;;;;;5102194;28;20080;-74
2023/05/17 14:21:02;;;;;;;5.55;1.42;;;;;;;;;;5098566;27;20027;-74
2023/05/17 14:23:27;;;;;;;5.57;1.40;;;;;;;;;;5101652;28;20580;-74
2023/05/17 14:25:53;;;;;;;4.78;1.20;;;;;;;;;;5102825;27;20508;-74
2023/05/17 14:28:18;;;;;;;2.30;1.20;;;;;;;;;;5101734;27;20524;-74
2023/05/17 14:30:44;;;;;;;4.55;1.30;;;;;;;;;;5098207;28;20097;-74
2023/05/17 14:33:10;;;;;;;2.67;1.27;;;;;;;;;;5092743;28;20035;-74
2023/05/17 14:35:35;;;;;;;1.80;1.20;;;;;;;;;;5096156;27;20040;-74
2023/05/17 14:38:01;;;;;;;4.07;1.30;;;;;;;;;;5101138;28;20023;-74